<?xml version="1.0" encoding="UTF-8" standalone="no" ?>
<gpx xmlns="http://www.topografix.com/GPX/1/1" xmlns:xsi="http://www.w3.org/2001/XMLSchema-instance" xsi:schemaLocation="http://www.topografix.com/GPX/1/1 http://www.topografix.com/GPX/1/1/gpx.xsd" version="1.1" creator="VisuGPX - https://www.visugpx.com">
  <metadata>
    <name>col de l'Aigleton</name>
  </metadata>
  <trk>
    <name><![CDATA[Tracé actuel: 23 FEV 2020 08:58]]></name>
    <extensions>
      <line xmlns="http://www.topografix.com/GPX/gpx_style/0/2">
        <color>0000FF</color>
        <width>4</width>
      </line>
    </extensions>
    <trkseg>
      <trkpt lat="45.22519" lon="5.99798">
        <ele>1158.05</ele>
        <time>2020-02-23T06:58:02Z</time>
      </trkpt>
      <trkpt lat="45.22526" lon="5.99909">
        <ele>1207.55</ele>
        <time>2020-02-23T07:05:00Z</time>
      </trkpt>
      <trkpt lat="45.22451" lon="6.00089">
        <ele>1242.16</ele>
        <time>2020-02-23T07:07:53Z</time>
      </trkpt>
      <trkpt lat="45.22359" lon="6.00168">
        <ele>1266.67</ele>
        <time>2020-02-23T07:10:15Z</time>
      </trkpt>
      <trkpt lat="45.22305" lon="6.00214">
        <ele>1293.59</ele>
        <time>2020-02-23T07:15:16Z</time>
      </trkpt>
      <trkpt lat="45.22316" lon="6.00277">
        <ele>1318.1</ele>
        <time>2020-02-23T07:17:43Z</time>
      </trkpt>
      <trkpt lat="45.22329" lon="6.00339">
        <ele>1328.68</ele>
        <time>2020-02-23T07:18:59Z</time>
      </trkpt>
      <trkpt lat="45.22323" lon="6.00402">
        <ele>1343.1</ele>
        <time>2020-02-23T07:20:38Z</time>
      </trkpt>
      <trkpt lat="45.22304" lon="6.00439">
        <ele>1363.77</ele>
        <time>2020-02-23T07:26:02Z</time>
      </trkpt>
      <trkpt lat="45.22248" lon="6.00443">
        <ele>1379.15</ele>
        <time>2020-02-23T07:27:42Z</time>
      </trkpt>
      <trkpt lat="45.22234" lon="6.00476">
        <ele>1395.01</ele>
        <time>2020-02-23T07:29:11Z</time>
      </trkpt>
      <trkpt lat="45.22214" lon="6.00508">
        <ele>1411.35</ele>
        <time>2020-02-23T07:30:48Z</time>
      </trkpt>
      <trkpt lat="45.22198" lon="6.00513">
        <ele>1423.85</ele>
        <time>2020-02-23T07:32:19Z</time>
      </trkpt>
      <trkpt lat="45.22197" lon="6.00589">
        <ele>1439.23</ele>
        <time>2020-02-23T07:33:52Z</time>
      </trkpt>
      <trkpt lat="45.22218" lon="6.00665">
        <ele>1448.84</ele>
        <time>2020-02-23T07:35:13Z</time>
      </trkpt>
      <trkpt lat="45.22227" lon="6.0073">
        <ele>1463.74</ele>
        <time>2020-02-23T07:36:43Z</time>
      </trkpt>
      <trkpt lat="45.2224" lon="6.00792">
        <ele>1479.61</ele>
        <time>2020-02-23T07:38:32Z</time>
      </trkpt>
      <trkpt lat="45.22234" lon="6.00838">
        <ele>1504.6</ele>
        <time>2020-02-23T07:46:39Z</time>
      </trkpt>
      <trkpt lat="45.22244" lon="6.00899">
        <ele>1515.66</ele>
        <time>2020-02-23T07:47:50Z</time>
      </trkpt>
      <trkpt lat="45.22239" lon="6.00937">
        <ele>1532.48</ele>
        <time>2020-02-23T07:50:07Z</time>
      </trkpt>
      <trkpt lat="45.22236" lon="6.01002">
        <ele>1549.78</ele>
        <time>2020-02-23T07:53:30Z</time>
      </trkpt>
      <trkpt lat="45.22231" lon="6.01081">
        <ele>1561.32</ele>
        <time>2020-02-23T07:54:42Z</time>
      </trkpt>
      <trkpt lat="45.22234" lon="6.01153">
        <ele>1572.37</ele>
        <time>2020-02-23T07:56:03Z</time>
      </trkpt>
      <trkpt lat="45.22241" lon="6.01223">
        <ele>1584.87</ele>
        <time>2020-02-23T07:57:27Z</time>
      </trkpt>
      <trkpt lat="45.22237" lon="6.01295">
        <ele>1602.66</ele>
        <time>2020-02-23T07:59:21Z</time>
      </trkpt>
      <trkpt lat="45.22238" lon="6.01344">
        <ele>1617.56</ele>
        <time>2020-02-23T08:00:55Z</time>
      </trkpt>
      <trkpt lat="45.22248" lon="6.0137">
        <ele>1629.57</ele>
        <time>2020-02-23T08:03:36Z</time>
      </trkpt>
      <trkpt lat="45.22227" lon="6.01432">
        <ele>1644.95</ele>
        <time>2020-02-23T08:06:15Z</time>
      </trkpt>
      <trkpt lat="45.22236" lon="6.01463">
        <ele>1651.2</ele>
        <time>2020-02-23T08:13:48Z</time>
      </trkpt>
      <trkpt lat="45.22248" lon="6.01535">
        <ele>1653.12</ele>
        <time>2020-02-23T08:14:50Z</time>
      </trkpt>
      <trkpt lat="45.22257" lon="6.01614">
        <ele>1654.09</ele>
        <time>2020-02-23T08:15:38Z</time>
      </trkpt>
      <trkpt lat="45.22268" lon="6.01703">
        <ele>1650.72</ele>
        <time>2020-02-23T08:16:27Z</time>
      </trkpt>
      <trkpt lat="45.2223" lon="6.01756">
        <ele>1654.09</ele>
        <time>2020-02-23T08:17:19Z</time>
      </trkpt>
      <trkpt lat="45.22221" lon="6.01802">
        <ele>1661.3</ele>
        <time>2020-02-23T08:18:12Z</time>
      </trkpt>
      <trkpt lat="45.22238" lon="6.01858">
        <ele>1668.51</ele>
        <time>2020-02-23T08:19:10Z</time>
      </trkpt>
      <trkpt lat="45.2223" lon="6.01923">
        <ele>1673.79</ele>
        <time>2020-02-23T08:19:57Z</time>
      </trkpt>
      <trkpt lat="45.22228" lon="6.01991">
        <ele>1677.16</ele>
        <time>2020-02-23T08:20:48Z</time>
      </trkpt>
      <trkpt lat="45.22227" lon="6.0205">
        <ele>1685.81</ele>
        <time>2020-02-23T08:21:45Z</time>
      </trkpt>
      <trkpt lat="45.22242" lon="6.02099">
        <ele>1696.38</ele>
        <time>2020-02-23T08:22:51Z</time>
      </trkpt>
      <trkpt lat="45.22278" lon="6.02139">
        <ele>1704.07</ele>
        <time>2020-02-23T08:23:50Z</time>
      </trkpt>
      <trkpt lat="45.22308" lon="6.02172">
        <ele>1712.25</ele>
        <time>2020-02-23T08:24:54Z</time>
      </trkpt>
      <trkpt lat="45.22321" lon="6.02204">
        <ele>1718.49</ele>
        <time>2020-02-23T08:27:42Z</time>
      </trkpt>
      <trkpt lat="45.22357" lon="6.02241">
        <ele>1726.18</ele>
        <time>2020-02-23T08:28:44Z</time>
      </trkpt>
      <trkpt lat="45.22362" lon="6.02269">
        <ele>1738.68</ele>
        <time>2020-02-23T08:30:06Z</time>
      </trkpt>
      <trkpt lat="45.22365" lon="6.02323">
        <ele>1750.7</ele>
        <time>2020-02-23T08:33:20Z</time>
      </trkpt>
      <trkpt lat="45.22391" lon="6.02365">
        <ele>1763.68</ele>
        <time>2020-02-23T08:34:35Z</time>
      </trkpt>
      <trkpt lat="45.22421" lon="6.02385">
        <ele>1777.13</ele>
        <time>2020-02-23T08:36:02Z</time>
      </trkpt>
      <trkpt lat="45.22455" lon="6.02414">
        <ele>1792.52</ele>
        <time>2020-02-23T08:37:35Z</time>
      </trkpt>
      <trkpt lat="45.22457" lon="6.02473">
        <ele>1804.53</ele>
        <time>2020-02-23T08:39:03Z</time>
      </trkpt>
      <trkpt lat="45.22475" lon="6.0253">
        <ele>1815.59</ele>
        <time>2020-02-23T08:40:20Z</time>
      </trkpt>
      <trkpt lat="45.22486" lon="6.02588">
        <ele>1829.05</ele>
        <time>2020-02-23T08:45:06Z</time>
      </trkpt>
      <trkpt lat="45.22518" lon="6.02615">
        <ele>1842.98</ele>
        <time>2020-02-23T08:46:38Z</time>
      </trkpt>
      <trkpt lat="45.2255" lon="6.02649">
        <ele>1855.48</ele>
        <time>2020-02-23T08:48:04Z</time>
      </trkpt>
      <trkpt lat="45.22595" lon="6.02683">
        <ele>1865.58</ele>
        <time>2020-02-23T08:49:49Z</time>
      </trkpt>
      <trkpt lat="45.2263" lon="6.02724">
        <ele>1872.3</ele>
        <time>2020-02-23T08:50:52Z</time>
      </trkpt>
      <trkpt lat="45.22667" lon="6.0277">
        <ele>1882.88</ele>
        <time>2020-02-23T08:52:15Z</time>
      </trkpt>
      <trkpt lat="45.22693" lon="6.02807">
        <ele>1891.05</ele>
        <time>2020-02-23T08:55:18Z</time>
      </trkpt>
      <trkpt lat="45.22728" lon="6.02832">
        <ele>1903.55</ele>
        <time>2020-02-23T08:56:51Z</time>
      </trkpt>
      <trkpt lat="45.22702" lon="6.02853">
        <ele>1908.35</ele>
        <time>2020-02-23T09:03:18Z</time>
      </trkpt>
      <trkpt lat="45.22655" lon="6.02855">
        <ele>1922.29</ele>
        <time>2020-02-23T09:04:50Z</time>
      </trkpt>
      <trkpt lat="45.22619" lon="6.0289">
        <ele>1932.87</ele>
        <time>2020-02-23T09:06:05Z</time>
      </trkpt>
      <trkpt lat="45.22593" lon="6.02923">
        <ele>1944.88</ele>
        <time>2020-02-23T09:07:48Z</time>
      </trkpt>
      <trkpt lat="45.22587" lon="6.02956">
        <ele>1956.9</ele>
        <time>2020-02-23T09:09:08Z</time>
      </trkpt>
      <trkpt lat="45.22594" lon="6.02997">
        <ele>1971.32</ele>
        <time>2020-02-23T09:10:47Z</time>
      </trkpt>
      <trkpt lat="45.22631" lon="6.03019">
        <ele>1986.22</ele>
        <time>2020-02-23T09:13:41Z</time>
      </trkpt>
      <trkpt lat="45.22677" lon="6.03029">
        <ele>2001.12</ele>
        <time>2020-02-23T09:15:08Z</time>
      </trkpt>
      <trkpt lat="45.22693" lon="6.03057">
        <ele>2016.02</ele>
        <time>2020-02-23T09:17:38Z</time>
      </trkpt>
      <trkpt lat="45.22712" lon="6.0312">
        <ele>2029.96</ele>
        <time>2020-02-23T09:19:12Z</time>
      </trkpt>
      <trkpt lat="45.22695" lon="6.03182">
        <ele>2039.57</ele>
        <time>2020-02-23T09:25:00Z</time>
      </trkpt>
      <trkpt lat="45.22698" lon="6.03211">
        <ele>2050.63</ele>
        <time>2020-02-23T09:26:27Z</time>
      </trkpt>
      <trkpt lat="45.22754" lon="6.03236">
        <ele>2063.61</ele>
        <time>2020-02-23T09:28:28Z</time>
      </trkpt>
      <trkpt lat="45.22784" lon="6.0325">
        <ele>2075.14</ele>
        <time>2020-02-23T09:30:24Z</time>
      </trkpt>
      <trkpt lat="45.22769" lon="6.03277">
        <ele>2085.72</ele>
        <time>2020-02-23T09:33:33Z</time>
      </trkpt>
      <trkpt lat="45.22763" lon="6.03303">
        <ele>2095.33</ele>
        <time>2020-02-23T09:34:49Z</time>
      </trkpt>
      <trkpt lat="45.22799" lon="6.03305">
        <ele>2107.83</ele>
        <time>2020-02-23T09:36:43Z</time>
      </trkpt>
      <trkpt lat="45.22847" lon="6.03294">
        <ele>2119.84</ele>
        <time>2020-02-23T09:38:19Z</time>
      </trkpt>
      <trkpt lat="45.22885" lon="6.03315">
        <ele>2130.42</ele>
        <time>2020-02-23T09:43:27Z</time>
      </trkpt>
      <trkpt lat="45.22921" lon="6.03339">
        <ele>2146.28</ele>
        <time>2020-02-23T09:47:36Z</time>
      </trkpt>
      <trkpt lat="45.22914" lon="6.03381">
        <ele>2158.3</ele>
        <time>2020-02-23T09:49:28Z</time>
      </trkpt>
      <trkpt lat="45.22951" lon="6.03412">
        <ele>2171.27</ele>
        <time>2020-02-23T09:51:02Z</time>
      </trkpt>
      <trkpt lat="45.22984" lon="6.03437">
        <ele>2180.89</ele>
        <time>2020-02-23T09:52:36Z</time>
      </trkpt>
      <trkpt lat="45.22966" lon="6.03485">
        <ele>2193.39</ele>
        <time>2020-02-23T09:54:12Z</time>
      </trkpt>
      <trkpt lat="45.2297" lon="6.03556">
        <ele>2204.44</ele>
        <time>2020-02-23T09:55:46Z</time>
      </trkpt>
      <trkpt lat="45.23017" lon="6.03597">
        <ele>2215.98</ele>
        <time>2020-02-23T09:57:24Z</time>
      </trkpt>
      <trkpt lat="45.23052" lon="6.03603">
        <ele>2231.36</ele>
        <time>2020-02-23T09:59:47Z</time>
      </trkpt>
      <trkpt lat="45.23063" lon="6.03622">
        <ele>2243.85</ele>
        <time>2020-02-23T10:02:31Z</time>
      </trkpt>
      <trkpt lat="45.23082" lon="6.03655">
        <ele>2256.83</ele>
        <time>2020-02-23T10:03:56Z</time>
      </trkpt>
      <trkpt lat="45.23069" lon="6.037">
        <ele>2264.04</ele>
        <time>2020-02-23T10:07:22Z</time>
      </trkpt>
      <trkpt lat="45.2305" lon="6.03695">
        <ele>2279.42</ele>
        <time>2020-02-23T10:09:51Z</time>
      </trkpt>
      <trkpt lat="45.23028" lon="6.03698">
        <ele>2292.4</ele>
        <time>2020-02-23T10:12:58Z</time>
      </trkpt>
      <trkpt lat="45.23044" lon="6.03697">
        <ele>2286.15</ele>
        <time>2020-02-23T10:20:38Z</time>
      </trkpt>
      <trkpt lat="45.23062" lon="6.03669">
        <ele>2265.48</ele>
        <time>2020-02-23T10:21:12Z</time>
      </trkpt>
      <trkpt lat="45.2311" lon="6.03633">
        <ele>2279.42</ele>
        <time>2020-02-23T10:25:20Z</time>
      </trkpt>
      <trkpt lat="45.23111" lon="6.03633">
        <ele>2282.31</ele>
        <time>2020-02-23T10:39:52Z</time>
      </trkpt>
      <trkpt lat="45.23123" lon="6.03624">
        <ele>2283.75</ele>
        <time>2020-02-23T10:53:04Z</time>
      </trkpt>
      <trkpt lat="45.23138" lon="6.03554">
        <ele>2278.94</ele>
        <time>2020-02-23T10:55:29Z</time>
      </trkpt>
      <trkpt lat="45.23113" lon="6.03504">
        <ele>2269.33</ele>
        <time>2020-02-23T10:55:38Z</time>
      </trkpt>
      <trkpt lat="45.23072" lon="6.03505">
        <ele>2239.05</ele>
        <time>2020-02-23T10:55:53Z</time>
      </trkpt>
      <trkpt lat="45.23033" lon="6.03477">
        <ele>2211.65</ele>
        <time>2020-02-23T10:56:10Z</time>
      </trkpt>
      <trkpt lat="45.23001" lon="6.0344">
        <ele>2202.52</ele>
        <time>2020-02-23T10:56:24Z</time>
      </trkpt>
      <trkpt lat="45.22986" lon="6.03396">
        <ele>2199.15</ele>
        <time>2020-02-23T10:58:13Z</time>
      </trkpt>
      <trkpt lat="45.22954" lon="6.03357">
        <ele>2185.69</ele>
        <time>2020-02-23T10:58:25Z</time>
      </trkpt>
      <trkpt lat="45.22928" lon="6.03306">
        <ele>2174.16</ele>
        <time>2020-02-23T10:58:38Z</time>
      </trkpt>
      <trkpt lat="45.22906" lon="6.03252">
        <ele>2160.7</ele>
        <time>2020-02-23T10:58:48Z</time>
      </trkpt>
      <trkpt lat="45.2293" lon="6.03214">
        <ele>2159.74</ele>
        <time>2020-02-23T10:59:28Z</time>
      </trkpt>
      <trkpt lat="45.22925" lon="6.03277">
        <ele>2158.78</ele>
        <time>2020-02-23T10:59:58Z</time>
      </trkpt>
      <trkpt lat="45.22879" lon="6.03265">
        <ele>2147.24</ele>
        <time>2020-02-23T11:00:44Z</time>
      </trkpt>
      <trkpt lat="45.22836" lon="6.03236">
        <ele>2131.86</ele>
        <time>2020-02-23T11:00:59Z</time>
      </trkpt>
      <trkpt lat="45.22795" lon="6.03225">
        <ele>2105.91</ele>
        <time>2020-02-23T11:01:52Z</time>
      </trkpt>
      <trkpt lat="45.22767" lon="6.03183">
        <ele>2078.99</ele>
        <time>2020-02-23T11:02:05Z</time>
      </trkpt>
      <trkpt lat="45.22754" lon="6.03124">
        <ele>2065.05</ele>
        <time>2020-02-23T11:02:21Z</time>
      </trkpt>
      <trkpt lat="45.22722" lon="6.0308">
        <ele>2050.15</ele>
        <time>2020-02-23T11:02:30Z</time>
      </trkpt>
      <trkpt lat="45.22771" lon="6.03071">
        <ele>2047.75</ele>
        <time>2020-02-23T11:04:32Z</time>
      </trkpt>
      <trkpt lat="45.22816" lon="6.03064">
        <ele>2043.9</ele>
        <time>2020-02-23T11:04:44Z</time>
      </trkpt>
      <trkpt lat="45.22838" lon="6.03027">
        <ele>2037.17</ele>
        <time>2020-02-23T11:04:54Z</time>
      </trkpt>
      <trkpt lat="45.22814" lon="6.02989">
        <ele>2028.04</ele>
        <time>2020-02-23T11:05:45Z</time>
      </trkpt>
      <trkpt lat="45.22853" lon="6.02951">
        <ele>2021.31</ele>
        <time>2020-02-23T11:05:53Z</time>
      </trkpt>
      <trkpt lat="45.2288" lon="6.02894">
        <ele>2016.98</ele>
        <time>2020-02-23T11:06:01Z</time>
      </trkpt>
      <trkpt lat="45.22866" lon="6.02845">
        <ele>2005.45</ele>
        <time>2020-02-23T11:06:10Z</time>
      </trkpt>
      <trkpt lat="45.22845" lon="6.02794">
        <ele>1986.7</ele>
        <time>2020-02-23T11:06:19Z</time>
      </trkpt>
      <trkpt lat="45.22811" lon="6.0276">
        <ele>1961.23</ele>
        <time>2020-02-23T11:06:31Z</time>
      </trkpt>
      <trkpt lat="45.22795" lon="6.02704">
        <ele>1935.27</ele>
        <time>2020-02-23T11:06:43Z</time>
      </trkpt>
      <trkpt lat="45.22774" lon="6.02652">
        <ele>1919.89</ele>
        <time>2020-02-23T11:06:52Z</time>
      </trkpt>
      <trkpt lat="45.22744" lon="6.02636">
        <ele>1905.47</ele>
        <time>2020-02-23T11:08:18Z</time>
      </trkpt>
      <trkpt lat="45.22712" lon="6.02596">
        <ele>1900.66</ele>
        <time>2020-02-23T11:08:26Z</time>
      </trkpt>
      <trkpt lat="45.2267" lon="6.02577">
        <ele>1892.97</ele>
        <time>2020-02-23T11:08:35Z</time>
      </trkpt>
      <trkpt lat="45.22639" lon="6.02527">
        <ele>1886.72</ele>
        <time>2020-02-23T11:08:45Z</time>
      </trkpt>
      <trkpt lat="45.22617" lon="6.02493">
        <ele>1870.38</ele>
        <time>2020-02-23T11:08:57Z</time>
      </trkpt>
      <trkpt lat="45.22578" lon="6.02464">
        <ele>1862.21</ele>
        <time>2020-02-23T11:09:05Z</time>
      </trkpt>
      <trkpt lat="45.22535" lon="6.0243">
        <ele>1852.12</ele>
        <time>2020-02-23T11:09:15Z</time>
      </trkpt>
      <trkpt lat="45.22506" lon="6.02389">
        <ele>1844.91</ele>
        <time>2020-02-23T11:10:31Z</time>
      </trkpt>
      <trkpt lat="45.22468" lon="6.02346">
        <ele>1831.93</ele>
        <time>2020-02-23T11:10:43Z</time>
      </trkpt>
      <trkpt lat="45.22437" lon="6.02339">
        <ele>1805.49</ele>
        <time>2020-02-23T11:11:03Z</time>
      </trkpt>
      <trkpt lat="45.22401" lon="6.02288">
        <ele>1781.94</ele>
        <time>2020-02-23T11:11:19Z</time>
      </trkpt>
      <trkpt lat="45.22396" lon="6.0225">
        <ele>1770.41</ele>
        <time>2020-02-23T11:13:46Z</time>
      </trkpt>
      <trkpt lat="45.22353" lon="6.02213">
        <ele>1757.91</ele>
        <time>2020-02-23T11:13:58Z</time>
      </trkpt>
      <trkpt lat="45.22331" lon="6.02157">
        <ele>1748.78</ele>
        <time>2020-02-23T11:14:10Z</time>
      </trkpt>
      <trkpt lat="45.22304" lon="6.02109">
        <ele>1739.16</ele>
        <time>2020-02-23T11:14:20Z</time>
      </trkpt>
      <trkpt lat="45.22279" lon="6.02047">
        <ele>1728.59</ele>
        <time>2020-02-23T11:14:29Z</time>
      </trkpt>
      <trkpt lat="45.22282" lon="6.0198">
        <ele>1716.09</ele>
        <time>2020-02-23T11:14:36Z</time>
      </trkpt>
      <trkpt lat="45.22287" lon="6.01914">
        <ele>1714.65</ele>
        <time>2020-02-23T11:14:43Z</time>
      </trkpt>
      <trkpt lat="45.2229" lon="6.01846">
        <ele>1708.88</ele>
        <time>2020-02-23T11:14:50Z</time>
      </trkpt>
      <trkpt lat="45.22295" lon="6.01786">
        <ele>1699.27</ele>
        <time>2020-02-23T11:15:00Z</time>
      </trkpt>
      <trkpt lat="45.22327" lon="6.01738">
        <ele>1692.06</ele>
        <time>2020-02-23T11:15:06Z</time>
      </trkpt>
      <trkpt lat="45.22322" lon="6.0166">
        <ele>1695.42</ele>
        <time>2020-02-23T11:15:20Z</time>
      </trkpt>
      <trkpt lat="45.22261" lon="6.01558">
        <ele>1694.94</ele>
        <time>2020-02-23T11:15:39Z</time>
      </trkpt>
      <trkpt lat="45.2227" lon="6.01507">
        <ele>1694.46</ele>
        <time>2020-02-23T11:15:57Z</time>
      </trkpt>
      <trkpt lat="45.22253" lon="6.01428">
        <ele>1689.17</ele>
        <time>2020-02-23T11:16:19Z</time>
      </trkpt>
      <trkpt lat="45.22294" lon="6.01389">
        <ele>1678.6</ele>
        <time>2020-02-23T11:16:36Z</time>
      </trkpt>
      <trkpt lat="45.22302" lon="6.01325">
        <ele>1663.7</ele>
        <time>2020-02-23T11:17:07Z</time>
      </trkpt>
      <trkpt lat="45.22249" lon="6.01211">
        <ele>1636.3</ele>
        <time>2020-02-23T11:17:34Z</time>
      </trkpt>
      <trkpt lat="45.22251" lon="6.01139">
        <ele>1626.69</ele>
        <time>2020-02-23T11:17:44Z</time>
      </trkpt>
      <trkpt lat="45.22248" lon="6.01062">
        <ele>1617.56</ele>
        <time>2020-02-23T11:17:56Z</time>
      </trkpt>
      <trkpt lat="45.22258" lon="6.01001">
        <ele>1608.42</ele>
        <time>2020-02-23T11:18:07Z</time>
      </trkpt>
      <trkpt lat="45.22251" lon="6.00937">
        <ele>1590.64</ele>
        <time>2020-02-23T11:18:44Z</time>
      </trkpt>
      <trkpt lat="45.22278" lon="6.00884">
        <ele>1573.82</ele>
        <time>2020-02-23T11:19:11Z</time>
      </trkpt>
      <trkpt lat="45.22291" lon="6.00805">
        <ele>1556.51</ele>
        <time>2020-02-23T11:19:34Z</time>
      </trkpt>
      <trkpt lat="45.22303" lon="6.00732">
        <ele>1545.46</ele>
        <time>2020-02-23T11:20:02Z</time>
      </trkpt>
      <trkpt lat="45.2227" lon="6.00648">
        <ele>1534.4</ele>
        <time>2020-02-23T11:20:23Z</time>
      </trkpt>
      <trkpt lat="45.22249" lon="6.00579">
        <ele>1521.42</ele>
        <time>2020-02-23T11:20:41Z</time>
      </trkpt>
      <trkpt lat="45.22244" lon="6.00509">
        <ele>1511.81</ele>
        <time>2020-02-23T11:21:03Z</time>
      </trkpt>
      <trkpt lat="45.22251" lon="6.00496">
        <ele>1501.24</ele>
        <time>2020-02-23T11:21:53Z</time>
      </trkpt>
      <trkpt lat="45.22252" lon="6.00461">
        <ele>1490.66</ele>
        <time>2020-02-23T11:24:06Z</time>
      </trkpt>
      <trkpt lat="45.22293" lon="6.00445">
        <ele>1472.4</ele>
        <time>2020-02-23T11:25:17Z</time>
      </trkpt>
      <trkpt lat="45.22337" lon="6.00417">
        <ele>1465.67</ele>
        <time>2020-02-23T11:25:57Z</time>
      </trkpt>
      <trkpt lat="45.22357" lon="6.00341">
        <ele>1462.78</ele>
        <time>2020-02-23T11:26:47Z</time>
      </trkpt>
      <trkpt lat="45.22378" lon="6.00296">
        <ele>1449.81</ele>
        <time>2020-02-23T11:27:49Z</time>
      </trkpt>
      <trkpt lat="45.22359" lon="6.00205">
        <ele>1426.25</ele>
        <time>2020-02-23T11:28:58Z</time>
      </trkpt>
      <trkpt lat="45.22394" lon="6.00148">
        <ele>1415.2</ele>
        <time>2020-02-23T11:30:11Z</time>
      </trkpt>
      <trkpt lat="45.22451" lon="6.00078">
        <ele>1404.62</ele>
        <time>2020-02-23T11:31:04Z</time>
      </trkpt>
      <trkpt lat="45.22499" lon="5.99994">
        <ele>1392.13</ele>
        <time>2020-02-23T11:32:11Z</time>
      </trkpt>
      <trkpt lat="45.22528" lon="5.99898">
        <ele>1379.63</ele>
        <time>2020-02-23T11:33:21Z</time>
      </trkpt>
      <trkpt lat="45.22533" lon="5.99767">
        <ele>1368.09</ele>
        <time>2020-02-23T11:34:31Z</time>
      </trkpt>
      <trkpt lat="45.2254" lon="5.9973">
        <ele>1369.05</ele>
        <time>2020-02-23T11:35:52Z</time>
      </trkpt>
    </trkseg>
  </trk>
</gpx>